KFFL/FFL METAR and TAF weather

Enter ICAO airport designator
Station Type Date Time Source
KFFL METAR 2021/07/28 20:15 UTC NOAA

KFFL 282015Z AUTO 20006KT 10SM CLR 32/26 A3002 RMK A01


Station Type Date Time Source
KFFL Decoded METAR 2021/07/28 20:15 UTC NOAA

Fair Field, IA, United States (KFFL) 41-03N 091-59W
Jul 28, 2021 - 04:15 PM EDT / 2021.07.28 2015 UTC
Wind: from the SSW (200 degrees) at 7 MPH (6 KT):0
Visibility: 10 mile(s):0
Sky conditions: clear
Temperature: 89 F (32 C)
Heat index: 102.9 F (39.4 C):1
Dew Point: 78 F (26 C)
Relative Humidity: 70%
Pressure (altimeter): 30.02 in. Hg (1016 hPa)
ob: KFFL 282015Z AUTO 20006KT 10SM CLR 32/26 A3002 RMK A01
cycle: 20

Station Type Date Time Source
KFFL TAF UTC NOAA

Error!

Example: see airport list